sensor_id;sensor_type;location;lat;lon;timestamp;temperature;humidity
63202;DHT22;49296;48.188;11.566;2024-02-26T00:00:23;6.57;72.70
63202;DHT22;49296;48.188;11.566;2024-02-26T00:02:50;6.48;72.83
63202;DHT22;49296;48.188;11.566;2024-02-26T00:05:17;6.51;72.68
63202;DHT22;49296;48.188;11.566;2024-02-26T00:07:43;6.46;72.51
63202;DHT22;49296;48.188;11.566;2024-02-26T00:10:10;6.41;72.55
63202;DHT22;49296;48.188;11.566;2024-02-26T00:12:37;6.44;72.91
63202;DHT22;49296;48.188;11.566;2024-02-26T00:15:05;6.46;73.47
63202;DHT22;49296;48.188;11.566;2024-02-26T00:17:33;6.43;73.01
63202;DHT22;49296;48.188;11.566;2024-02-26T00:20:01;6.46;72.83
63202;DHT22;49296;48.188;11.566;2024-02-26T00:22:29;6.47;72.47
63202;DHT22;49296;48.188;11.566;2024-02-26T00:24:56;6.44;71.92
63202;DHT22;49296;48.188;11.566;2024-02-26T00:27:23;6.37;71.75
63202;DHT22;49296;48.188;11.566;2024-02-26T00:29:49;6.37;71.67
63202;DHT22;49296;48.188;11.566;2024-02-26T00:32:16;6.28;71.90
63202;DHT22;49296;48.188;11.566;2024-02-26T00:34:44;6.28;71.98
63202;DHT22;49296;48.188;11.566;2024-02-26T00:37:11;6.29;71.83
63202;DHT22;49296;48.188;11.566;2024-02-26T00:39:38;6.26;71.83
63202;DHT22;49296;48.188;11.566;2024-02-26T00:42:05;6.26;71.99
63202;DHT22;49296;48.188;11.566;2024-02-26T00:44:31;6.19;72.20
63202;DHT22;49296;48.188;11.566;2024-02-26T00:46:58;6.13;72.30
63202;DHT22;49296;48.188;11.566;2024-02-26T00:49:25;6.18;72.24
63202;DHT22;49296;48.188;11.566;2024-02-26T00:51:53;6.09;72.35
63202;DHT22;49296;48.188;11.566;2024-02-26T00:54:19;6.11;72.44
63202;DHT22;49296;48.188;11.566;2024-02-26T00:56:46;6.09;72.39
63202;DHT22;49296;48.188;11.566;2024-02-26T00:59:13;6.09;72.53
63202;DHT22;49296;48.188;11.566;2024-02-26T01:01:39;6.11;72.27
63202;DHT22;49296;48.188;11.566;2024-02-26T01:04:06;6.06;72.22
63202;DHT22;49296;48.188;11.566;2024-02-26T01:06:33;6.05;72.30
63202;DHT22;49296;48.188;11.566;2024-02-26T01:09:01;5.95;72.39
63202;DHT22;49296;48.188;11.566;2024-02-26T01:11:28;5.97;72.43
63202;DHT22;49296;48.188;11.566;2024-02-26T01:13:55;5.92;72.61
63202;DHT22;49296;48.188;11.566;2024-02-26T01:16:22;5.90;72.50
63202;DHT22;49296;48.188;11.566;2024-02-26T01:18:49;5.87;72.59
63202;DHT22;49296;48.188;11.566;2024-02-26T01:21:16;5.88;72.56
63202;DHT22;49296;48.188;11.566;2024-02-26T01:23:42;5.87;72.41
63202;DHT22;49296;48.188;11.566;2024-02-26T01:26:10;5.92;72.22
63202;DHT22;49296;48.188;11.566;2024-02-26T01:28:37;6.02;72.23
63202;DHT22;49296;48.188;11.566;2024-02-26T01:31:04;5.95;71.97
63202;DHT22;49296;48.188;11.566;2024-02-26T01:33:33;5.85;71.94
63202;DHT22;49296;48.188;11.566;2024-02-26T01:36:00;5.77;72.20
63202;DHT22;49296;48.188;11.566;2024-02-26T01:38:27;5.78;72.24
63202;DHT22;49296;48.188;11.566;2024-02-26T01:40:54;5.77;72.21
63202;DHT22;49296;48.188;11.566;2024-02-26T01:43:22;5.71;72.30
63202;DHT22;49296;48.188;11.566;2024-02-26T01:45:48;5.64;72.46
63202;DHT22;49296;48.188;11.566;2024-02-26T01:48:15;5.67;72.53
63202;DHT22;49296;48.188;11.566;2024-02-26T01:50:42;5.60;72.48
63202;DHT22;49296;48.188;11.566;2024-02-26T01:53:09;5.61;72.49
63202;DHT22;49296;48.188;11.566;2024-02-26T01:55:36;5.68;72.25
63202;DHT22;49296;48.188;11.566;2024-02-26T01:58:03;5.63;71.99
63202;DHT22;49296;48.188;11.566;2024-02-26T02:00:33;5.58;72.10
63202;DHT22;49296;48.188;11.566;2024-02-26T02:03:00;5.61;71.94
63202;DHT22;49296;48.188;11.566;2024-02-26T02:05:28;5.60;71.82
63202;DHT22;49296;48.188;11.566;2024-02-26T02:07:55;5.51;71.87
63202;DHT22;49296;48.188;11.566;2024-02-26T02:10:23;5.47;72.00
63202;DHT22;49296;48.188;11.566;2024-02-26T02:12:51;5.49;71.78
63202;DHT22;49296;48.188;11.566;2024-02-26T02:15:18;5.54;71.63
63202;DHT22;49296;48.188;11.566;2024-02-26T02:17:46;5.50;71.76
63202;DHT22;49296;48.188;11.566;2024-02-26T02:20:15;5.54;71.41
63202;DHT22;49296;48.188;11.566;2024-02-26T02:22:44;5.53;71.14
63202;DHT22;49296;48.188;11.566;2024-02-26T02:25:11;5.60;70.95
63202;DHT22;49296;48.188;11.566;2024-02-26T02:27:38;5.56;70.98
63202;DHT22;49296;48.188;11.566;2024-02-26T02:30:06;5.60;70.70
63202;DHT22;49296;48.188;11.566;2024-02-26T02:32:34;5.61;70.55
63202;DHT22;49296;48.188;11.566;2024-02-26T02:35:02;5.67;70.42
63202;DHT22;49296;48.188;11.566;2024-02-26T02:37:29;5.63;70.55
63202;DHT22;49296;48.188;11.566;2024-02-26T02:39:57;5.66;70.60
63202;DHT22;49296;48.188;11.566;2024-02-26T02:42:24;5.68;70.61
63202;DHT22;49296;48.188;11.566;2024-02-26T02:44:51;5.60;70.51
63202;DHT22;49296;48.188;11.566;2024-02-26T02:47:17;5.53;70.52
63202;DHT22;49296;48.188;11.566;2024-02-26T02:49:44;5.50;70.61
63202;DHT22;49296;48.188;11.566;2024-02-26T02:52:11;5.54;70.36
63202;DHT22;49296;48.188;11.566;2024-02-26T02:54:37;5.51;70.23
63202;DHT22;49296;48.188;11.566;2024-02-26T02:57:08;5.43;70.36
63202;DHT22;49296;48.188;11.566;2024-02-26T02:59:35;5.42;70.57
63202;DHT22;49296;48.188;11.566;2024-02-26T03:02:02;5.35;70.82
63202;DHT22;49296;48.188;11.566;2024-02-26T03:04:28;5.36;70.77
63202;DHT22;49296;48.188;11.566;2024-02-26T03:06:55;5.43;70.48
63202;DHT22;49296;48.188;11.566;2024-02-26T03:09:23;5.43;70.40
63202;DHT22;49296;48.188;11.566;2024-02-26T03:11:50;5.38;70.57
63202;DHT22;49296;48.188;11.566;2024-02-26T03:14:18;5.29;71.03
63202;DHT22;49296;48.188;11.566;2024-02-26T03:16:44;5.33;71.04
63202;DHT22;49296;48.188;11.566;2024-02-26T03:19:14;5.30;71.32
63202;DHT22;49296;48.188;11.566;2024-02-26T03:21:41;5.36;71.49
63202;DHT22;49296;48.188;11.566;2024-02-26T03:24:07;5.28;71.64
63202;DHT22;49296;48.188;11.566;2024-02-26T03:26:35;5.22;71.80
63202;DHT22;49296;48.188;11.566;2024-02-26T03:29:02;5.19;72.01
63202;DHT22;49296;48.188;11.566;2024-02-26T03:31:30;5.23;71.91
63202;DHT22;49296;48.188;11.566;2024-02-26T03:33:57;5.25;71.86
63202;DHT22;49296;48.188;11.566;2024-02-26T03:36:24;5.28;72.00
63202;DHT22;49296;48.188;11.566;2024-02-26T03:38:50;5.23;72.05
63202;DHT22;49296;48.188;11.566;2024-02-26T03:41:17;5.25;71.99
63202;DHT22;49296;48.188;11.566;2024-02-26T03:43:44;5.28;71.81
63202;DHT22;49296;48.188;11.566;2024-02-26T03:46:11;5.23;71.87
63202;DHT22;49296;48.188;11.566;2024-02-26T03:48:40;5.21;71.81
63202;DHT22;49296;48.188;11.566;2024-02-26T03:51:08;5.18;71.85
63202;DHT22;49296;48.188;11.566;2024-02-26T03:53:35;5.19;71.70
63202;DHT22;49296;48.188;11.566;2024-02-26T03:56:03;5.22;71.65
63202;DHT22;49296;48.188;11.566;2024-02-26T03:58:30;5.22;71.58
63202;DHT22;49296;48.188;11.566;2024-02-26T04:00:57;5.23;71.23
63202;DHT22;49296;48.188;11.566;2024-02-26T04:03:23;5.28;71.26
63202;DHT22;49296;48.188;11.566;2024-02-26T04:05:52;5.22;71.23
63202;DHT22;49296;48.188;11.566;2024-02-26T04:08:19;5.22;71.42
63202;DHT22;49296;48.188;11.566;2024-02-26T04:10:46;5.25;71.10
63202;DHT22;49296;48.188;11.566;2024-02-26T04:13:12;5.35;70.89
63202;DHT22;49296;48.188;11.566;2024-02-26T04:15:40;5.38;70.69
63202;DHT22;49296;48.188;11.566;2024-02-26T04:18:06;5.42;70.71
63202;DHT22;49296;48.188;11.566;2024-02-26T04:20:33;5.36;70.78
63202;DHT22;49296;48.188;11.566;2024-02-26T04:23:02;5.26;71.03
63202;DHT22;49296;48.188;11.566;2024-02-26T04:25:28;5.19;71.13
63202;DHT22;49296;48.188;11.566;2024-02-26T04:27:55;5.22;71.06
63202;DHT22;49296;48.188;11.566;2024-02-26T04:30:22;5.28;70.89
63202;DHT22;49296;48.188;11.566;2024-02-26T04:32:49;5.25;70.88
63202;DHT22;49296;48.188;11.566;2024-02-26T04:35:16;5.28;70.91
63202;DHT22;49296;48.188;11.566;2024-02-26T04:37:42;5.30;70.70
63202;DHT22;49296;48.188;11.566;2024-02-26T04:40:11;5.32;70.54
63202;DHT22;49296;48.188;11.566;2024-02-26T04:42:38;5.30;70.46
63202;DHT22;49296;48.188;11.566;2024-02-26T04:45:06;5.19;70.79
63202;DHT22;49296;48.188;11.566;2024-02-26T04:47:33;5.16;70.71
63202;DHT22;49296;48.188;11.566;2024-02-26T04:50:00;5.19;70.68
63202;DHT22;49296;48.188;11.566;2024-02-26T04:52:27;5.18;70.64
63202;DHT22;49296;48.188;11.566;2024-02-26T04:54:53;5.15;70.61
63202;DHT22;49296;48.188;11.566;2024-02-26T04:57:22;5.11;70.62
63202;DHT22;49296;48.188;11.566;2024-02-26T04:59:49;5.05;70.79
63202;DHT22;49296;48.188;11.566;2024-02-26T05:02:15;5.14;70.66
63202;DHT22;49296;48.188;11.566;2024-02-26T05:04:42;5.09;70.69
63202;DHT22;49296;48.188;11.566;2024-02-26T05:07:09;5.07;70.67
63202;DHT22;49296;48.188;11.566;2024-02-26T05:09:36;5.12;70.62
63202;DHT22;49296;48.188;11.566;2024-02-26T05:12:03;5.11;70.63
63202;DHT22;49296;48.188;11.566;2024-02-26T05:14:31;5.14;70.47
63202;DHT22;49296;48.188;11.566;2024-02-26T05:16:58;5.23;70.32
63202;DHT22;49296;48.188;11.566;2024-02-26T05:19:24;5.18;70.20
63202;DHT22;49296;48.188;11.566;2024-02-26T05:21:51;5.19;70.18
63202;DHT22;49296;48.188;11.566;2024-02-26T05:24:18;5.21;70.21
63202;DHT22;49296;48.188;11.566;2024-02-26T05:26:48;5.22;70.16
63202;DHT22;49296;48.188;11.566;2024-02-26T05:29:14;5.23;70.14
63202;DHT22;49296;48.188;11.566;2024-02-26T05:31:43;5.22;70.10
63202;DHT22;49296;48.188;11.566;2024-02-26T05:34:10;5.22;70.37
63202;DHT22;49296;48.188;11.566;2024-02-26T05:36:36;5.26;70.03
63202;DHT22;49296;48.188;11.566;2024-02-26T05:39:04;5.25;69.99
63202;DHT22;49296;48.188;11.566;2024-02-26T05:41:30;5.23;70.11
63202;DHT22;49296;48.188;11.566;2024-02-26T05:43:58;5.25;70.18
63202;DHT22;49296;48.188;11.566;2024-02-26T05:46:24;5.16;70.57
63202;DHT22;49296;48.188;11.566;2024-02-26T05:48:53;5.19;70.69
63202;DHT22;49296;48.188;11.566;2024-02-26T05:51:20;5.21;70.59
63202;DHT22;49296;48.188;11.566;2024-02-26T05:53:47;5.26;70.41
63202;DHT22;49296;48.188;11.566;2024-02-26T05:56:19;5.30;70.52
63202;DHT22;49296;48.188;11.566;2024-02-26T05:58:46;5.33;70.24
63202;DHT22;49296;48.188;11.566;2024-02-26T06:01:13;5.40;70.22
63202;DHT22;49296;48.188;11.566;2024-02-26T06:03:39;5.35;70.40
63202;DHT22;49296;48.188;11.566;2024-02-26T06:06:07;5.35;70.22
63202;DHT22;49296;48.188;11.566;2024-02-26T06:08:34;5.33;70.03
63202;DHT22;49296;48.188;11.566;2024-02-26T06:11:05;5.33;70.06
63202;DHT22;49296;48.188;11.566;2024-02-26T06:13:32;5.35;70.06
63202;DHT22;49296;48.188;11.566;2024-02-26T06:15:58;5.32;70.39
63202;DHT22;49296;48.188;11.566;2024-02-26T06:18:25;5.38;70.24
63202;DHT22;49296;48.188;11.566;2024-02-26T06:20:52;5.40;70.34
63202;DHT22;49296;48.188;11.566;2024-02-26T06:23:20;5.39;70.46
63202;DHT22;49296;48.188;11.566;2024-02-26T06:25:47;5.38;70.41
63202;DHT22;49296;48.188;11.566;2024-02-26T06:28:14;5.39;70.34
63202;DHT22;49296;48.188;11.566;2024-02-26T06:30:41;5.44;70.53
63202;DHT22;49296;48.188;11.566;2024-02-26T06:33:07;5.43;70.55
63202;DHT22;49296;48.188;11.566;2024-02-26T06:35:34;5.47;70.34
63202;DHT22;49296;48.188;11.566;2024-02-26T06:38:01;5.54;70.26
63202;DHT22;49296;48.188;11.566;2024-02-26T06:40:29;5.60;70.06
63202;DHT22;49296;48.188;11.566;2024-02-26T06:42:55;5.66;70.04
63202;DHT22;49296;48.188;11.566;2024-02-26T06:45:22;5.67;70.17
63202;DHT22;49296;48.188;11.566;2024-02-26T06:47:49;5.66;70.00
63202;DHT22;49296;48.188;11.566;2024-02-26T06:50:16;5.75;69.64
63202;DHT22;49296;48.188;11.566;2024-02-26T06:52:44;5.79;69.68
63202;DHT22;49296;48.188;11.566;2024-02-26T06:55:10;5.83;69.77
63202;DHT22;49296;48.188;11.566;2024-02-26T06:57:38;5.85;70.04
63202;DHT22;49296;48.188;11.566;2024-02-26T07:00:06;5.97;69.86
63202;DHT22;49296;48.188;11.566;2024-02-26T07:02:33;6.02;69.77
63202;DHT22;49296;48.188;11.566;2024-02-26T07:04:59;6.03;69.52
63202;DHT22;49296;48.188;11.566;2024-02-26T07:07:26;6.06;69.39
63202;DHT22;49296;48.188;11.566;2024-02-26T07:09:53;6.05;69.02
63202;DHT22;49296;48.188;11.566;2024-02-26T07:12:20;6.09;68.83
63202;DHT22;49296;48.188;11.566;2024-02-26T07:14:48;6.13;69.07
63202;DHT22;49296;48.188;11.566;2024-02-26T07:17:15;6.15;68.84
63202;DHT22;49296;48.188;11.566;2024-02-26T07:19:42;6.15;68.73
63202;DHT22;49296;48.188;11.566;2024-02-26T07:22:09;6.13;68.73
63202;DHT22;49296;48.188;11.566;2024-02-26T07:24:36;6.09;69.11
63202;DHT22;49296;48.188;11.566;2024-02-26T07:27:03;6.09;69.07
63202;DHT22;49296;48.188;11.566;2024-02-26T07:29:29;6.15;69.16
63202;DHT22;49296;48.188;11.566;2024-02-26T07:31:57;6.20;68.64
63202;DHT22;49296;48.188;11.566;2024-02-26T07:34:24;6.22;68.88
63202;DHT22;49296;48.188;11.566;2024-02-26T07:36:54;6.23;68.53
63202;DHT22;49296;48.188;11.566;2024-02-26T07:39:21;6.32;68.44
63202;DHT22;49296;48.188;11.566;2024-02-26T07:41:48;6.40;68.49
63202;DHT22;49296;48.188;11.566;2024-02-26T07:44:17;6.41;68.55
63202;DHT22;49296;48.188;11.566;2024-02-26T07:46:43;6.34;68.81
63202;DHT22;49296;48.188;11.566;2024-02-26T07:49:11;6.36;69.39
63202;DHT22;49296;48.188;11.566;2024-02-26T07:51:38;6.44;69.25
63202;DHT22;49296;48.188;11.566;2024-02-26T07:54:05;6.37;70.02
63202;DHT22;49296;48.188;11.566;2024-02-26T07:56:32;6.41;69.19
63202;DHT22;49296;48.188;11.566;2024-02-26T07:59:01;6.41;69.49
63202;DHT22;49296;48.188;11.566;2024-02-26T08:01:28;6.46;69.27
63202;DHT22;49296;48.188;11.566;2024-02-26T08:03:55;6.50;69.51
63202;DHT22;49296;48.188;11.566;2024-02-26T08:06:23;6.55;69.55
63202;DHT22;49296;48.188;11.566;2024-02-26T08:08:52;6.60;69.03
63202;DHT22;49296;48.188;11.566;2024-02-26T08:11:19;6.58;68.39
63202;DHT22;49296;48.188;11.566;2024-02-26T08:13:45;6.61;68.25
63202;DHT22;49296;48.188;11.566;2024-02-26T08:16:12;6.65;68.19
63202;DHT22;49296;48.188;11.566;2024-02-26T08:18:39;6.67;68.23
63202;DHT22;49296;48.188;11.566;2024-02-26T08:21:06;6.77;68.03
63202;DHT22;49296;48.188;11.566;2024-02-26T08:23:35;6.82;68.07
63202;DHT22;49296;48.188;11.566;2024-02-26T08:26:02;6.93;67.66
63202;DHT22;49296;48.188;11.566;2024-02-26T08:28:29;7.02;68.07
63202;DHT22;49296;48.188;11.566;2024-02-26T08:30:56;7.10;67.53
63202;DHT22;49296;48.188;11.566;2024-02-26T08:33:23;7.17;67.10
63202;DHT22;49296;48.188;11.566;2024-02-26T08:35:49;7.17;67.26
63202;DHT22;49296;48.188;11.566;2024-02-26T08:38:16;7.22;67.11
63202;DHT22;49296;48.188;11.566;2024-02-26T08:40:44;7.34;67.71
63202;DHT22;49296;48.188;11.566;2024-02-26T08:43:11;7.36;67.63
63202;DHT22;49296;48.188;11.566;2024-02-26T08:45:38;7.38;67.16
63202;DHT22;49296;48.188;11.566;2024-02-26T08:48:05;7.48;68.08
63202;DHT22;49296;48.188;11.566;2024-02-26T08:50:33;7.51;67.08
63202;DHT22;49296;48.188;11.566;2024-02-26T08:53:00;7.58;68.02
63202;DHT22;49296;48.188;11.566;2024-02-26T08:55:27;7.46;67.10
63202;DHT22;49296;48.188;11.566;2024-02-26T08:57:55;7.23;67.45
63202;DHT22;49296;48.188;11.566;2024-02-26T09:00:21;7.43;67.42
63202;DHT22;49296;48.188;11.566;2024-02-26T09:02:48;7.64;66.75
63202;DHT22;49296;48.188;11.566;2024-02-26T09:05:15;7.74;66.59
63202;DHT22;49296;48.188;11.566;2024-02-26T09:07:42;7.79;66.36
63202;DHT22;49296;48.188;11.566;2024-02-26T09:10:09;7.88;65.82
63202;DHT22;49296;48.188;11.566;2024-02-26T09:12:36;7.93;66.58
63202;DHT22;49296;48.188;11.566;2024-02-26T09:15:05;7.97;65.88
63202;DHT22;49296;48.188;11.566;2024-02-26T09:17:32;7.96;65.91
63202;DHT22;49296;48.188;11.566;2024-02-26T09:19:59;7.92;65.61
63202;DHT22;49296;48.188;11.566;2024-02-26T09:22:26;7.93;65.46
63202;DHT22;49296;48.188;11.566;2024-02-26T09:24:52;8.00;65.21
63202;DHT22;49296;48.188;11.566;2024-02-26T09:27:19;7.99;65.12
63202;DHT22;49296;48.188;11.566;2024-02-26T09:29:46;7.97;64.83
63202;DHT22;49296;48.188;11.566;2024-02-26T09:32:14;7.93;65.20
63202;DHT22;49296;48.188;11.566;2024-02-26T09:34:41;7.97;64.80
63202;DHT22;49296;48.188;11.566;2024-02-26T09:37:08;8.05;64.86
63202;DHT22;49296;48.188;11.566;2024-02-26T09:39:34;8.13;65.00
63202;DHT22;49296;48.188;11.566;2024-02-26T09:42:04;8.12;64.79
63202;DHT22;49296;48.188;11.566;2024-02-26T09:44:33;8.17;64.73
63202;DHT22;49296;48.188;11.566;2024-02-26T09:47:04;8.29;64.64
63202;DHT22;49296;48.188;11.566;2024-02-26T09:49:34;8.42;64.20
63202;DHT22;49296;48.188;11.566;2024-02-26T09:52:01;8.51;63.60
63202;DHT22;49296;48.188;11.566;2024-02-26T09:54:29;8.52;63.41
63202;DHT22;49296;48.188;11.566;2024-02-26T09:56:59;8.50;63.12
63202;DHT22;49296;48.188;11.566;2024-02-26T09:59:27;8.48;63.08
63202;DHT22;49296;48.188;11.566;2024-02-26T10:01:54;8.62;62.87
63202;DHT22;49296;48.188;11.566;2024-02-26T10:04:22;8.72;62.09
63202;DHT22;49296;48.188;11.566;2024-02-26T10:06:52;8.75;62.06
63202;DHT22;49296;48.188;11.566;2024-02-26T10:09:19;8.82;61.84
63202;DHT22;49296;48.188;11.566;2024-02-26T10:11:47;8.90;61.83
63202;DHT22;49296;48.188;11.566;2024-02-26T10:14:16;9.03;61.84
63202;DHT22;49296;48.188;11.566;2024-02-26T10:16:42;9.10;62.23
63202;DHT22;49296;48.188;11.566;2024-02-26T10:19:24;9.20;63.07
63202;DHT22;49296;48.188;11.566;2024-02-26T10:21:56;9.19;63.45
63202;DHT22;49296;48.188;11.566;2024-02-26T10:24:23;9.38;63.25
63202;DHT22;49296;48.188;11.566;2024-02-26T10:26:50;9.37;62.66
63202;DHT22;49296;48.188;11.566;2024-02-26T10:29:18;9.44;62.70
63202;DHT22;49296;48.188;11.566;2024-02-26T10:31:45;9.44;63.17
63202;DHT22;49296;48.188;11.566;2024-02-26T10:34:12;9.42;63.32
63202;DHT22;49296;48.188;11.566;2024-02-26T10:36:39;9.48;62.99
63202;DHT22;49296;48.188;11.566;2024-02-26T10:39:07;9.54;63.44
63202;DHT22;49296;48.188;11.566;2024-02-26T10:41:34;9.52;63.53
63202;DHT22;49296;48.188;11.566;2024-02-26T10:44:01;9.52;62.80
63202;DHT22;49296;48.188;11.566;2024-02-26T10:46:28;9.55;62.95
63202;DHT22;49296;48.188;11.566;2024-02-26T10:48:56;9.62;62.77
63202;DHT22;49296;48.188;11.566;2024-02-26T10:51:26;9.72;62.81
63202;DHT22;49296;48.188;11.566;2024-02-26T10:53:55;9.82;63.10
63202;DHT22;49296;48.188;11.566;2024-02-26T10:56:27;9.86;62.95
63202;DHT22;49296;48.188;11.566;2024-02-26T10:58:55;9.99;63.16
63202;DHT22;49296;48.188;11.566;2024-02-26T11:01:22;10.11;62.55
63202;DHT22;49296;48.188;11.566;2024-02-26T11:03:51;10.18;61.95
63202;DHT22;49296;48.188;11.566;2024-02-26T11:06:18;10.17;61.48
63202;DHT22;49296;48.188;11.566;2024-02-26T11:08:48;10.21;60.97
63202;DHT22;49296;48.188;11.566;2024-02-26T11:11:16;10.13;61.25
63202;DHT22;49296;48.188;11.566;2024-02-26T11:13:47;10.22;60.32
63202;DHT22;49296;48.188;11.566;2024-02-26T11:16:17;10.33;59.87
63202;DHT22;49296;48.188;11.566;2024-02-26T11:18:46;10.37;61.92
63202;DHT22;49296;48.188;11.566;2024-02-26T11:21:15;10.45;61.23
63202;DHT22;49296;48.188;11.566;2024-02-26T11:23:42;10.55;61.44
63202;DHT22;49296;48.188;11.566;2024-02-26T11:26:10;10.56;60.16
63202;DHT22;49296;48.188;11.566;2024-02-26T11:28:38;10.70;59.29
63202;DHT22;49296;48.188;11.566;2024-02-26T11:31:06;10.76;59.52
63202;DHT22;49296;48.188;11.566;2024-02-26T11:33:34;10.83;60.48
63202;DHT22;49296;48.188;11.566;2024-02-26T11:36:02;10.80;59.95
63202;DHT22;49296;48.188;11.566;2024-02-26T11:38:28;11.00;58.70
63202;DHT22;49296;48.188;11.566;2024-02-26T11:40:55;11.14;58.63
63202;DHT22;49296;48.188;11.566;2024-02-26T11:43:23;11.17;57.91
63202;DHT22;49296;48.188;11.566;2024-02-26T11:45:50;11.30;59.01
63202;DHT22;49296;48.188;11.566;2024-02-26T11:48:23;11.36;58.35
63202;DHT22;49296;48.188;11.566;2024-02-26T11:50:51;11.48;57.55
63202;DHT22;49296;48.188;11.566;2024-02-26T11:53:23;11.45;56.62
63202;DHT22;49296;48.188;11.566;2024-02-26T11:56:25;11.54;57.32
63202;DHT22;49296;48.188;11.566;2024-02-26T11:58:57;11.63;58.28
63202;DHT22;49296;48.188;11.566;2024-02-26T12:01:41;11.66;58.60
63202;DHT22;49296;48.188;11.566;2024-02-26T12:04:12;11.73;58.30
63202;DHT22;49296;48.188;11.566;2024-02-26T12:06:45;11.91;57.11
63202;DHT22;49296;48.188;11.566;2024-02-26T12:09:12;12.00;56.61
63202;DHT22;49296;48.188;11.566;2024-02-26T12:11:40;12.17;55.19
63202;DHT22;49296;48.188;11.566;2024-02-26T12:14:09;12.31;56.63
63202;DHT22;49296;48.188;11.566;2024-02-26T12:16:36;12.44;56.66
63202;DHT22;49296;48.188;11.566;2024-02-26T12:19:09;12.56;56.74
63202;DHT22;49296;48.188;11.566;2024-02-26T12:21:37;12.56;55.32
63202;DHT22;49296;48.188;11.566;2024-02-26T12:24:10;12.62;55.81
63202;DHT22;49296;48.188;11.566;2024-02-26T12:26:37;12.56;55.04
63202;DHT22;49296;48.188;11.566;2024-02-26T12:29:04;12.49;55.47
63202;DHT22;49296;48.188;11.566;2024-02-26T12:31:31;12.70;55.37
63202;DHT22;49296;48.188;11.566;2024-02-26T12:33:58;12.66;54.71
63202;DHT22;49296;48.188;11.566;2024-02-26T12:36:26;12.72;54.67
63202;DHT22;49296;48.188;11.566;2024-02-26T12:38:53;12.86;54.85
63202;DHT22;49296;48.188;11.566;2024-02-26T12:41:20;12.97;54.71
63202;DHT22;49296;48.188;11.566;2024-02-26T12:43:48;13.06;55.58
63202;DHT22;49296;48.188;11.566;2024-02-26T12:46:15;13.04;55.12
63202;DHT22;49296;48.188;11.566;2024-02-26T12:48:42;12.75;55.25
63202;DHT22;49296;48.188;11.566;2024-02-26T12:51:09;12.66;55.34
63202;DHT22;49296;48.188;11.566;2024-02-26T12:53:38;12.86;55.95
63202;DHT22;49296;48.188;11.566;2024-02-26T12:56:06;13.08;56.50
63202;DHT22;49296;48.188;11.566;2024-02-26T12:58:34;13.24;56.37
63202;DHT22;49296;48.188;11.566;2024-02-26T13:01:03;13.14;54.88
63202;DHT22;49296;48.188;11.566;2024-02-26T13:03:31;13.19;54.82
63202;DHT22;49296;48.188;11.566;2024-02-26T13:05:58;13.42;54.73
63202;DHT22;49296;48.188;11.566;2024-02-26T13:08:25;13.38;53.83
63202;DHT22;49296;48.188;11.566;2024-02-26T13:10:53;13.38;53.44
63202;DHT22;49296;48.188;11.566;2024-02-26T13:13:20;13.26;53.13
63202;DHT22;49296;48.188;11.566;2024-02-26T13:15:46;13.35;54.07
63202;DHT22;49296;48.188;11.566;2024-02-26T13:18:14;13.08;54.31
63202;DHT22;49296;48.188;11.566;2024-02-26T13:20:41;13.28;54.72
63202;DHT22;49296;48.188;11.566;2024-02-26T13:23:10;13.71;54.63
63202;DHT22;49296;48.188;11.566;2024-02-26T13:25:38;13.93;52.64
63202;DHT22;49296;48.188;11.566;2024-02-26T13:28:08;13.88;52.43
63202;DHT22;49296;48.188;11.566;2024-02-26T13:30:35;13.81;52.49
63202;DHT22;49296;48.188;11.566;2024-02-26T13:33:09;13.79;52.49
63202;DHT22;49296;48.188;11.566;2024-02-26T13:35:35;13.65;50.00
63202;DHT22;49296;48.188;11.566;2024-02-26T13:38:04;13.81;49.47
63202;DHT22;49296;48.188;11.566;2024-02-26T13:40:31;13.88;46.78
63202;DHT22;49296;48.188;11.566;2024-02-26T13:42:57;14.07;45.99
63202;DHT22;49296;48.188;11.566;2024-02-26T13:45:25;14.20;45.11
63202;DHT22;49296;48.188;11.566;2024-02-26T13:47:52;14.28;44.46
63202;DHT22;49296;48.188;11.566;2024-02-26T13:50:19;14.18;45.33
63202;DHT22;49296;48.188;11.566;2024-02-26T13:52:48;14.05;47.36
63202;DHT22;49296;48.188;11.566;2024-02-26T13:55:18;13.91;47.65
63202;DHT22;49296;48.188;11.566;2024-02-26T13:57:46;13.81;47.30
63202;DHT22;49296;48.188;11.566;2024-02-26T14:00:14;13.70;48.85
63202;DHT22;49296;48.188;11.566;2024-02-26T14:02:42;13.59;49.54
63202;DHT22;49296;48.188;11.566;2024-02-26T14:05:09;13.67;48.73
63202;DHT22;49296;48.188;11.566;2024-02-26T14:07:35;13.81;48.57
63202;DHT22;49296;48.188;11.566;2024-02-26T14:10:02;13.86;47.90
63202;DHT22;49296;48.188;11.566;2024-02-26T14:12:29;13.73;48.15
63202;DHT22;49296;48.188;11.566;2024-02-26T14:14:56;13.45;50.08
63202;DHT22;49296;48.188;11.566;2024-02-26T14:17:25;13.31;50.88
63202;DHT22;49296;48.188;11.566;2024-02-26T14:19:53;13.29;51.61
63202;DHT22;49296;48.188;11.566;2024-02-26T14:22:20;13.41;51.86
63202;DHT22;49296;48.188;11.566;2024-02-26T14:24:47;13.36;52.05
63202;DHT22;49296;48.188;11.566;2024-02-26T14:27:14;13.24;52.23
63202;DHT22;49296;48.188;11.566;2024-02-26T14:29:41;13.17;52.27
63202;DHT22;49296;48.188;11.566;2024-02-26T14:32:08;13.21;51.87
63202;DHT22;49296;48.188;11.566;2024-02-26T14:34:35;13.24;52.39
63202;DHT22;49296;48.188;11.566;2024-02-26T14:37:04;13.14;53.23
63202;DHT22;49296;48.188;11.566;2024-02-26T14:39:31;13.10;53.30
63202;DHT22;49296;48.188;11.566;2024-02-26T14:41:58;13.00;54.17
63202;DHT22;49296;48.188;11.566;2024-02-26T14:44:25;12.80;54.32
63202;DHT22;49296;48.188;11.566;2024-02-26T14:46:51;12.91;53.89
63202;DHT22;49296;48.188;11.566;2024-02-26T14:49:18;12.82;53.83
63202;DHT22;49296;48.188;11.566;2024-02-26T14:51:45;12.62;53.38
63202;DHT22;49296;48.188;11.566;2024-02-26T14:54:14;12.55;53.44
63202;DHT22;49296;48.188;11.566;2024-02-26T14:56:40;12.39;54.31
63202;DHT22;49296;48.188;11.566;2024-02-26T14:59:07;12.28;54.49
63202;DHT22;49296;48.188;11.566;2024-02-26T15:01:34;12.21;54.84
63202;DHT22;49296;48.188;11.566;2024-02-26T15:04:01;12.22;54.58
63202;DHT22;49296;48.188;11.566;2024-02-26T15:06:29;12.17;54.54
63202;DHT22;49296;48.188;11.566;2024-02-26T15:08:55;12.18;54.73
63202;DHT22;49296;48.188;11.566;2024-02-26T15:11:24;12.11;54.87
63202;DHT22;49296;48.188;11.566;2024-02-26T15:13:50;12.05;55.24
63202;DHT22;49296;48.188;11.566;2024-02-26T15:16:18;12.10;55.08
63202;DHT22;49296;48.188;11.566;2024-02-26T15:18:46;11.97;54.51
63202;DHT22;49296;48.188;11.566;2024-02-26T15:21:12;11.76;55.14
63202;DHT22;49296;48.188;11.566;2024-02-26T15:23:42;11.80;55.41
63202;DHT22;49296;48.188;11.566;2024-02-26T15:26:10;11.89;55.41
63202;DHT22;49296;48.188;11.566;2024-02-26T15:28:38;11.90;55.42